sensor_id;sensor_type;location;lat;lon;timestamp;P1;durP1;ratioP1;P2;durP2;ratioP2
58412;SDS011;44209;52.952;6.790;2023-04-24T00:01:31;1.00;;;0.80;;
58412;SDS011;44209;52.952;6.790;2023-04-24T00:03:59;1.10;;;0.90;;
58412;SDS011;44209;52.952;6.790;2023-04-24T00:06:25;0.87;;;0.80;;
58412;SDS011;44209;52.952;6.790;2023-04-24T00:08:58;1.03;;;1.03;;
58412;SDS011;44209;52.952;6.790;2023-04-24T00:11:25;1.93;;;1.27;;
58412;SDS011;44209;52.952;6.790;2023-04-24T00:13:52;1.73;;;1.20;;
58412;SDS011;44209;52.952;6.790;2023-04-24T00:16:18;2.60;;;1.90;;
58412;SDS011;44209;52.952;6.790;2023-04-24T00:18:43;2.93;;;1.63;;
58412;SDS011;44209;52.952;6.790;2023-04-24T00:21:10;1.80;;;1.70;;
58412;SDS011;44209;52.952;6.790;2023-04-24T00:23:36;1.67;;;1.57;;
58412;SDS011;44209;52.952;6.790;2023-04-24T00:26:02;1.90;;;1.80;;
58412;SDS011;44209;52.952;6.790;2023-04-24T00:28:28;2.20;;;2.00;;
58412;SDS011;44209;52.952;6.790;2023-04-24T00:30:53;3.07;;;2.13;;
58412;SDS011;44209;52.952;6.790;2023-04-24T00:33:19;2.63;;;2.43;;
58412;SDS011;44209;52.952;6.790;2023-04-24T00:35:45;2.20;;;2.10;;
58412;SDS011;44209;52.952;6.790;2023-04-24T00:38:11;2.50;;;2.30;;
58412;SDS011;44209;52.952;6.790;2023-04-24T00:40:36;2.30;;;2.10;;
58412;SDS011;44209;52.952;6.790;2023-04-24T00:43:02;2.07;;;1.93;;
58412;SDS011;44209;52.952;6.790;2023-04-24T00:45:28;2.60;;;2.40;;
58412;SDS011;44209;52.952;6.790;2023-04-24T00:47:56;3.00;;;2.33;;
58412;SDS011;44209;52.952;6.790;2023-04-24T00:50:23;3.20;;;2.90;;
58412;SDS011;44209;52.952;6.790;2023-04-24T00:52:49;3.00;;;2.80;;
58412;SDS011;44209;52.952;6.790;2023-04-24T00:55:16;3.73;;;3.00;;
58412;SDS011;44209;52.952;6.790;2023-04-24T00:57:42;3.23;;;2.93;;
58412;SDS011;44209;52.952;6.790;2023-04-24T01:00:09;3.17;;;2.87;;
58412;SDS011;44209;52.952;6.790;2023-04-24T01:02:38;3.00;;;2.80;;
58412;SDS011;44209;52.952;6.790;2023-04-24T01:05:08;3.20;;;2.90;;
58412;SDS011;44209;52.952;6.790;2023-04-24T01:07:34;3.30;;;3.00;;
58412;SDS011;44209;52.952;6.790;2023-04-24T01:10:02;3.80;;;3.50;;
58412;SDS011;44209;52.952;6.790;2023-04-24T01:12:28;4.00;;;3.60;;
58412;SDS011;44209;52.952;6.790;2023-04-24T01:14:54;3.97;;;3.67;;
58412;SDS011;44209;52.952;6.790;2023-04-24T01:17:21;4.20;;;3.80;;
58412;SDS011;44209;52.952;6.790;2023-04-24T01:19:47;4.50;;;4.10;;
58412;SDS011;44209;52.952;6.790;2023-04-24T01:22:14;4.60;;;4.20;;
58412;SDS011;44209;52.952;6.790;2023-04-24T01:24:40;4.60;;;4.20;;
58412;SDS011;44209;52.952;6.790;2023-04-24T01:27:07;4.67;;;4.27;;
58412;SDS011;44209;52.952;6.790;2023-04-24T01:29:34;5.40;;;4.90;;
58412;SDS011;44209;52.952;6.790;2023-04-24T01:32:00;5.30;;;4.80;;
58412;SDS011;44209;52.952;6.790;2023-04-24T01:34:26;7.33;;;5.67;;
58412;SDS011;44209;52.952;6.790;2023-04-24T01:36:52;5.90;;;5.20;;
58412;SDS011;44209;52.952;6.790;2023-04-24T01:39:18;6.60;;;5.60;;
58412;SDS011;44209;52.952;6.790;2023-04-24T01:41:45;6.13;;;5.53;;
58412;SDS011;44209;52.952;6.790;2023-04-24T01:44:11;6.97;;;6.00;;
58412;SDS011;44209;52.952;6.790;2023-04-24T01:46:37;5.53;;;5.03;;
58412;SDS011;44209;52.952;6.790;2023-04-24T01:49:03;6.83;;;5.20;;
58412;SDS011;44209;52.952;6.790;2023-04-24T01:51:29;5.13;;;4.63;;
58412;SDS011;44209;52.952;6.790;2023-04-24T01:53:55;5.00;;;4.60;;
58412;SDS011;44209;52.952;6.790;2023-04-24T01:56:21;5.10;;;4.70;;
58412;SDS011;44209;52.952;6.790;2023-04-24T01:58:48;5.97;;;5.37;;
58412;SDS011;44209;52.952;6.790;2023-04-24T02:01:18;5.53;;;5.03;;
58412;SDS011;44209;52.952;6.790;2023-04-24T02:03:45;5.80;;;5.40;;
58412;SDS011;44209;52.952;6.790;2023-04-24T02:06:10;5.83;;;5.43;;
58412;SDS011;44209;52.952;6.790;2023-04-24T02:08:36;5.80;;;5.37;;
58412;SDS011;44209;52.952;6.790;2023-04-24T02:11:02;6.53;;;6.00;;
58412;SDS011;44209;52.952;6.790;2023-04-24T02:13:28;6.73;;;6.13;;
58412;SDS011;44209;52.952;6.790;2023-04-24T02:15:54;6.57;;;5.97;;
58412;SDS011;44209;52.952;6.790;2023-04-24T02:18:19;6.60;;;6.07;;
58412;SDS011;44209;52.952;6.790;2023-04-24T02:20:45;6.50;;;5.97;;
58412;SDS011;44209;52.952;6.790;2023-04-24T02:23:11;6.00;;;5.50;;
58412;SDS011;44209;52.952;6.790;2023-04-24T02:25:38;6.47;;;5.97;;
58412;SDS011;44209;52.952;6.790;2023-04-24T02:28:04;6.80;;;6.20;;
58412;SDS011;44209;52.952;6.790;2023-04-24T02:30:29;6.43;;;5.93;;
58412;SDS011;44209;52.952;6.790;2023-04-24T02:32:55;6.77;;;6.17;;
58412;SDS011;44209;52.952;6.790;2023-04-24T02:35:21;6.50;;;5.90;;
58412;SDS011;44209;52.952;6.790;2023-04-24T02:37:47;6.83;;;6.20;;
58412;SDS011;44209;52.952;6.790;2023-04-24T02:40:12;8.30;;;6.93;;
58412;SDS011;44209;52.952;6.790;2023-04-24T02:42:38;6.90;;;6.30;;
58412;SDS011;44209;52.952;6.790;2023-04-24T02:45:04;6.67;;;6.07;;
58412;SDS011;44209;52.952;6.790;2023-04-24T02:47:30;7.10;;;6.50;;
58412;SDS011;44209;52.952;6.790;2023-04-24T02:49:56;6.60;;;6.00;;
58412;SDS011;44209;52.952;6.790;2023-04-24T02:52:22;7.40;;;6.70;;
58412;SDS011;44209;52.952;6.790;2023-04-24T02:54:47;7.57;;;6.87;;
58412;SDS011;44209;52.952;6.790;2023-04-24T02:57:13;7.00;;;6.40;;
58412;SDS011;44209;52.952;6.790;2023-04-24T02:59:38;7.90;;;7.20;;
58412;SDS011;44209;52.952;6.790;2023-04-24T03:02:04;7.53;;;6.80;;
58412;SDS011;44209;52.952;6.790;2023-04-24T03:04:30;7.90;;;7.20;;
58412;SDS011;44209;52.952;6.790;2023-04-24T03:06:57;8.17;;;7.37;;
58412;SDS011;44209;52.952;6.790;2023-04-24T03:09:23;8.00;;;7.20;;
58412;SDS011;44209;52.952;6.790;2023-04-24T03:11:49;8.43;;;7.57;;
58412;SDS011;44209;52.952;6.790;2023-04-24T03:14:15;8.33;;;7.50;;
58412;SDS011;44209;52.952;6.790;2023-04-24T03:16:41;7.93;;;7.13;;
58412;SDS011;44209;52.952;6.790;2023-04-24T03:19:07;8.40;;;7.60;;
58412;SDS011;44209;52.952;6.790;2023-04-24T03:21:33;8.10;;;7.30;;
58412;SDS011;44209;52.952;6.790;2023-04-24T03:24:00;8.60;;;7.77;;
58412;SDS011;44209;52.952;6.790;2023-04-24T03:26:26;7.80;;;7.10;;
58412;SDS011;44209;52.952;6.790;2023-04-24T03:28:51;9.33;;;8.00;;
58412;SDS011;44209;52.952;6.790;2023-04-24T03:31:17;9.10;;;8.23;;
58412;SDS011;44209;52.952;6.790;2023-04-24T03:33:44;9.90;;;8.63;;
58412;SDS011;44209;52.952;6.790;2023-04-24T03:36:09;8.70;;;7.80;;
58412;SDS011;44209;52.952;6.790;2023-04-24T03:38:35;8.50;;;7.63;;
58412;SDS011;44209;52.952;6.790;2023-04-24T03:41:01;8.63;;;7.93;;
58412;SDS011;44209;52.952;6.790;2023-04-24T03:43:27;9.07;;;8.27;;
58412;SDS011;44209;52.952;6.790;2023-04-24T03:45:52;8.30;;;7.47;;
58412;SDS011;44209;52.952;6.790;2023-04-24T03:48:18;8.73;;;7.93;;
58412;SDS011;44209;52.952;6.790;2023-04-24T03:50:44;8.83;;;7.93;;
58412;SDS011;44209;52.952;6.790;2023-04-24T03:53:09;8.80;;;7.90;;
58412;SDS011;44209;52.952;6.790;2023-04-24T03:55:35;8.77;;;7.97;;
58412;SDS011;44209;52.952;6.790;2023-04-24T03:58:01;8.67;;;7.20;;
58412;SDS011;44209;52.952;6.790;2023-04-24T04:00:26;7.67;;;6.93;;
58412;SDS011;44209;52.952;6.790;2023-04-24T04:02:52;7.63;;;6.93;;
58412;SDS011;44209;52.952;6.790;2023-04-24T04:05:18;7.83;;;7.13;;
58412;SDS011;44209;52.952;6.790;2023-04-24T04:07:44;7.70;;;7.00;;
58412;SDS011;44209;52.952;6.790;2023-04-24T04:10:10;7.80;;;7.07;;
58412;SDS011;44209;52.952;6.790;2023-04-24T04:12:35;8.17;;;7.37;;
58412;SDS011;44209;52.952;6.790;2023-04-24T04:15:01;8.97;;;7.33;;
58412;SDS011;44209;52.952;6.790;2023-04-24T04:17:27;7.60;;;6.80;;
58412;SDS011;44209;52.952;6.790;2023-04-24T04:19:53;7.63;;;6.73;;
58412;SDS011;44209;52.952;6.790;2023-04-24T04:22:18;8.43;;;7.30;;
58412;SDS011;44209;52.952;6.790;2023-04-24T04:24:44;7.60;;;6.90;;
58412;SDS011;44209;52.952;6.790;2023-04-24T04:27:11;7.23;;;6.63;;
58412;SDS011;44209;52.952;6.790;2023-04-24T04:29:37;7.10;;;6.40;;
58412;SDS011;44209;52.952;6.790;2023-04-24T04:32:03;6.10;;;5.60;;
58412;SDS011;44209;52.952;6.790;2023-04-24T04:34:29;7.33;;;6.00;;
58412;SDS011;44209;52.952;6.790;2023-04-24T04:36:56;6.27;;;5.03;;
58412;SDS011;44209;52.952;6.790;2023-04-24T04:39:26;6.27;;;5.67;;
58412;SDS011;44209;52.952;6.790;2023-04-24T04:41:53;7.70;;;6.90;;
58412;SDS011;44209;52.952;6.790;2023-04-24T04:44:19;7.03;;;5.97;;
58412;SDS011;44209;52.952;6.790;2023-04-24T04:46:44;8.37;;;6.83;;
58412;SDS011;44209;52.952;6.790;2023-04-24T04:49:11;8.23;;;7.23;;
58412;SDS011;44209;52.952;6.790;2023-04-24T04:51:36;7.57;;;6.80;;
58412;SDS011;44209;52.952;6.790;2023-04-24T04:54:02;6.73;;;6.13;;
58412;SDS011;44209;52.952;6.790;2023-04-24T04:56:28;7.83;;;7.03;;
58412;SDS011;44209;52.952;6.790;2023-04-24T04:58:53;7.50;;;6.67;;
58412;SDS011;44209;52.952;6.790;2023-04-24T05:01:19;8.73;;;6.80;;
58412;SDS011;44209;52.952;6.790;2023-04-24T05:03:45;7.23;;;6.53;;
58412;SDS011;44209;52.952;6.790;2023-04-24T05:06:10;7.40;;;6.20;;
58412;SDS011;44209;52.952;6.790;2023-04-24T05:08:36;7.40;;;6.60;;
58412;SDS011;44209;52.952;6.790;2023-04-24T05:11:02;6.33;;;5.73;;
58412;SDS011;44209;52.952;6.790;2023-04-24T05:13:27;6.47;;;5.83;;
58412;SDS011;44209;52.952;6.790;2023-04-24T05:15:53;6.43;;;5.03;;
58412;SDS011;44209;52.952;6.790;2023-04-24T05:18:19;5.83;;;5.07;;
58412;SDS011;44209;52.952;6.790;2023-04-24T05:20:44;5.70;;;5.10;;
58412;SDS011;44209;52.952;6.790;2023-04-24T05:23:10;6.00;;;5.13;;
58412;SDS011;44209;52.952;6.790;2023-04-24T05:25:36;5.33;;;4.80;;
58412;SDS011;44209;52.952;6.790;2023-04-24T05:28:04;4.97;;;4.30;;
58412;SDS011;44209;52.952;6.790;2023-04-24T05:30:30;4.80;;;4.30;;
58412;SDS011;44209;52.952;6.790;2023-04-24T05:32:55;5.17;;;4.60;;
58412;SDS011;44209;52.952;6.790;2023-04-24T05:35:21;5.37;;;4.87;;
58412;SDS011;44209;52.952;6.790;2023-04-24T05:37:47;5.90;;;5.10;;
58412;SDS011;44209;52.952;6.790;2023-04-24T05:40:12;7.10;;;5.03;;
58412;SDS011;44209;52.952;6.790;2023-04-24T05:42:38;6.23;;;5.20;;
58412;SDS011;44209;52.952;6.790;2023-04-24T05:45:04;6.60;;;5.40;;
58412;SDS011;44209;52.952;6.790;2023-04-24T05:47:30;6.30;;;5.53;;
58412;SDS011;44209;52.952;6.790;2023-04-24T05:49:56;6.77;;;5.73;;
58412;SDS011;44209;52.952;6.790;2023-04-24T05:52:21;7.77;;;5.83;;
58412;SDS011;44209;52.952;6.790;2023-04-24T05:54:47;7.00;;;5.80;;
58412;SDS011;44209;52.952;6.790;2023-04-24T05:57:13;6.67;;;5.67;;
58412;SDS011;44209;52.952;6.790;2023-04-24T05:59:40;7.97;;;6.07;;
58412;SDS011;44209;52.952;6.790;2023-04-24T06:02:06;7.73;;;5.57;;
58412;SDS011;44209;52.952;6.790;2023-04-24T06:04:32;8.27;;;5.40;;
58412;SDS011;44209;52.952;6.790;2023-04-24T06:06:58;6.57;;;5.30;;
58412;SDS011;44209;52.952;6.790;2023-04-24T06:09:25;6.47;;;5.00;;
58412;SDS011;44209;52.952;6.790;2023-04-24T06:11:51;7.30;;;5.40;;
58412;SDS011;44209;52.952;6.790;2023-04-24T06:14:19;6.47;;;5.40;;
58412;SDS011;44209;52.952;6.790;2023-04-24T06:16:45;7.37;;;5.30;;
58412;SDS011;44209;52.952;6.790;2023-04-24T06:19:11;7.33;;;4.83;;
58412;SDS011;44209;52.952;6.790;2023-04-24T06:21:36;7.70;;;5.30;;
58412;SDS011;44209;52.952;6.790;2023-04-24T06:24:02;7.03;;;4.77;;
58412;SDS011;44209;52.952;6.790;2023-04-24T06:26:29;5.67;;;4.43;;
58412;SDS011;44209;52.952;6.790;2023-04-24T06:28:55;5.17;;;4.50;;
58412;SDS011;44209;52.952;6.790;2023-04-24T06:31:21;6.73;;;4.90;;
58412;SDS011;44209;52.952;6.790;2023-04-24T06:33:48;5.67;;;4.53;;
58412;SDS011;44209;52.952;6.790;2023-04-24T06:36:14;6.37;;;4.90;;
58412;SDS011;44209;52.952;6.790;2023-04-24T06:38:40;5.43;;;4.70;;
58412;SDS011;44209;52.952;6.790;2023-04-24T06:41:06;5.53;;;4.40;;
58412;SDS011;44209;52.952;6.790;2023-04-24T06:43:32;6.03;;;4.63;;
58412;SDS011;44209;52.952;6.790;2023-04-24T06:45:59;6.27;;;4.77;;
58412;SDS011;44209;52.952;6.790;2023-04-24T06:48:25;4.83;;;4.33;;
58412;SDS011;44209;52.952;6.790;2023-04-24T06:50:51;5.87;;;4.47;;
58412;SDS011;44209;52.952;6.790;2023-04-24T06:53:17;6.70;;;4.70;;
58412;SDS011;44209;52.952;6.790;2023-04-24T06:55:43;5.53;;;4.93;;
58412;SDS011;44209;52.952;6.790;2023-04-24T06:58:11;6.17;;;5.13;;
58412;SDS011;44209;52.952;6.790;2023-04-24T07:00:37;6.00;;;4.77;;
58412;SDS011;44209;52.952;6.790;2023-04-24T07:03:03;6.23;;;4.53;;
58412;SDS011;44209;52.952;6.790;2023-04-24T07:05:30;6.33;;;5.20;;
58412;SDS011;44209;52.952;6.790;2023-04-24T07:07:56;5.57;;;4.60;;
58412;SDS011;44209;52.952;6.790;2023-04-24T07:10:25;4.83;;;4.00;;
58412;SDS011;44209;52.952;6.790;2023-04-24T07:12:54;3.20;;;2.90;;
58412;SDS011;44209;52.952;6.790;2023-04-24T07:15:21;2.80;;;2.60;;
58412;SDS011;44209;52.952;6.790;2023-04-24T07:17:48;2.80;;;2.40;;
58412;SDS011;44209;52.952;6.790;2023-04-24T07:20:14;2.50;;;2.30;;
58412;SDS011;44209;52.952;6.790;2023-04-24T07:22:40;3.37;;;2.20;;
58412;SDS011;44209;52.952;6.790;2023-04-24T07:25:06;4.00;;;3.17;;
58412;SDS011;44209;52.952;6.790;2023-04-24T07:27:33;3.37;;;3.07;;
58412;SDS011;44209;52.952;6.790;2023-04-24T07:29:59;3.90;;;3.47;;
58412;SDS011;44209;52.952;6.790;2023-04-24T07:32:24;4.93;;;3.60;;
58412;SDS011;44209;52.952;6.790;2023-04-24T07:34:50;5.77;;;4.10;;
58412;SDS011;44209;52.952;6.790;2023-04-24T07:37:16;5.83;;;4.53;;
58412;SDS011;44209;52.952;6.790;2023-04-24T07:39:42;5.00;;;4.00;;
58412;SDS011;44209;52.952;6.790;2023-04-24T07:42:07;5.60;;;4.23;;
58412;SDS011;44209;52.952;6.790;2023-04-24T07:44:33;5.20;;;4.30;;
58412;SDS011;44209;52.952;6.790;2023-04-24T07:46:59;5.87;;;4.17;;
58412;SDS011;44209;52.952;6.790;2023-04-24T07:49:24;5.23;;;4.27;;
58412;SDS011;44209;52.952;6.790;2023-04-24T07:51:50;4.33;;;3.53;;
58412;SDS011;44209;52.952;6.790;2023-04-24T07:54:16;3.50;;;2.70;;
58412;SDS011;44209;52.952;6.790;2023-04-24T07:56:42;4.20;;;3.07;;
58412;SDS011;44209;52.952;6.790;2023-04-24T07:59:08;3.77;;;2.90;;
58412;SDS011;44209;52.952;6.790;2023-04-24T08:01:35;4.80;;;3.07;;
58412;SDS011;44209;52.952;6.790;2023-04-24T08:04:01;3.27;;;2.90;;
58412;SDS011;44209;52.952;6.790;2023-04-24T08:06:27;4.43;;;3.03;;
58412;SDS011;44209;52.952;6.790;2023-04-24T08:08:58;7.13;;;3.63;;
58412;SDS011;44209;52.952;6.790;2023-04-24T08:11:25;5.63;;;2.97;;
58412;SDS011;44209;52.952;6.790;2023-04-24T08:13:51;4.57;;;3.07;;
58412;SDS011;44209;52.952;6.790;2023-04-24T08:16:16;4.73;;;2.87;;
58412;SDS011;44209;52.952;6.790;2023-04-24T08:18:42;3.17;;;2.57;;
58412;SDS011;44209;52.952;6.790;2023-04-24T08:21:08;3.43;;;2.60;;
58412;SDS011;44209;52.952;6.790;2023-04-24T08:23:34;3.77;;;2.43;;
58412;SDS011;44209;52.952;6.790;2023-04-24T08:25:59;4.93;;;2.60;;
58412;SDS011;44209;52.952;6.790;2023-04-24T08:28:25;5.87;;;2.80;;
58412;SDS011;44209;52.952;6.790;2023-04-24T08:30:51;4.97;;;2.70;;
58412;SDS011;44209;52.952;6.790;2023-04-24T08:33:20;4.73;;;3.10;;
58412;SDS011;44209;52.952;6.790;2023-04-24T08:35:47;6.80;;;4.00;;
58412;SDS011;44209;52.952;6.790;2023-04-24T08:38:12;8.73;;;5.20;;
58412;SDS011;44209;52.952;6.790;2023-04-24T08:40:38;11.53;;;6.17;;
58412;SDS011;44209;52.952;6.790;2023-04-24T08:43:04;13.20;;;6.73;;
58412;SDS011;44209;52.952;6.790;2023-04-24T08:45:30;17.60;;;8.30;;
58412;SDS011;44209;52.952;6.790;2023-04-24T08:47:58;11.83;;;8.40;;
58412;SDS011;44209;52.952;6.790;2023-04-24T08:50:25;16.57;;;9.90;;
58412;SDS011;44209;52.952;6.790;2023-04-24T08:52:51;18.33;;;10.37;;
58412;SDS011;44209;52.952;6.790;2023-04-24T08:55:19;18.07;;;10.97;;
58412;SDS011;44209;52.952;6.790;2023-04-24T08:57:45;17.73;;;11.13;;
58412;SDS011;44209;52.952;6.790;2023-04-24T09:00:16;22.08;;;12.45;;
58412;SDS011;44209;52.952;6.790;2023-04-24T09:02:43;26.07;;;13.70;;
58412;SDS011;44209;52.952;6.790;2023-04-24T09:05:10;23.80;;;13.57;;
58412;SDS011;44209;52.952;6.790;2023-04-24T09:07:37;22.60;;;13.60;;
58412;SDS011;44209;52.952;6.790;2023-04-24T09:10:06;28.27;;;14.83;;
58412;SDS011;44209;52.952;6.790;2023-04-24T09:12:33;25.10;;;15.40;;
58412;SDS011;44209;52.952;6.790;2023-04-24T09:15:00;24.70;;;14.80;;
58412;SDS011;44209;52.952;6.790;2023-04-24T09:17:28;19.63;;;13.27;;
58412;SDS011;44209;52.952;6.790;2023-04-24T09:19:55;24.53;;;13.60;;
58412;SDS011;44209;52.952;6.790;2023-04-24T09:22:21;24.90;;;14.37;;
58412;SDS011;44209;52.952;6.790;2023-04-24T09:24:46;23.70;;;14.60;;
58412;SDS011;44209;52.952;6.790;2023-04-24T09:27:13;25.27;;;16.30;;
58412;SDS011;44209;52.952;6.790;2023-04-24T09:29:56;26.33;;;15.77;;
58412;SDS011;44209;52.952;6.790;2023-04-24T09:32:23;28.17;;;15.68;;
58412;SDS011;44209;52.952;6.790;2023-04-24T09:37:41;27.33;;;16.47;;
58412;SDS011;44209;52.952;6.790;2023-04-24T09:42:42;28.00;;;16.87;;
58412;SDS011;44209;52.952;6.790;2023-04-24T09:45:09;25.67;;;15.70;;
58412;SDS011;44209;52.952;6.790;2023-04-24T09:47:37;25.93;;;15.40;;
58412;SDS011;44209;52.952;6.790;2023-04-24T09:50:13;21.50;;;15.60;;
58412;SDS011;44209;52.952;6.790;2023-04-24T09:53:02;26.37;;;16.07;;
58412;SDS011;44209;52.952;6.790;2023-04-24T09:55:27;25.10;;;16.00;;
58412;SDS011;44209;52.952;6.790;2023-04-24T09:57:54;24.07;;;15.27;;
58412;SDS011;44209;52.952;6.790;2023-04-24T10:00:26;24.73;;;15.07;;
58412;SDS011;44209;52.952;6.790;2023-04-24T10:02:58;24.50;;;14.77;;
58412;SDS011;44209;52.952;6.790;2023-04-24T10:05:34;25.27;;;14.93;;
58412;SDS011;44209;52.952;6.790;2023-04-24T10:10:28;21.30;;;13.57;;
58412;SDS011;44209;52.952;6.790;2023-04-24T10:12:54;19.67;;;12.27;;
58412;SDS011;44209;52.952;6.790;2023-04-24T10:15:20;18.20;;;12.00;;
58412;SDS011;44209;52.952;6.790;2023-04-24T10:17:48;18.33;;;11.87;;
58412;SDS011;44209;52.952;6.790;2023-04-24T10:20:37;15.57;;;11.80;;
58412;SDS011;44209;52.952;6.790;2023-04-24T10:23:04;17.23;;;11.80;;
58412;SDS011;44209;52.952;6.790;2023-04-24T10:25:31;17.20;;;12.07;;
58412;SDS011;44209;52.952;6.790;2023-04-24T10:27:59;21.37;;;12.73;;
58412;SDS011;44209;52.952;6.790;2023-04-24T10:30:26;17.47;;;10.57;;
58412;SDS011;44209;52.952;6.790;2023-04-24T10:32:53;19.97;;;11.07;;
58412;SDS011;44209;52.952;6.790;2023-04-24T10:35:20;16.77;;;11.63;;
58412;SDS011;44209;52.952;6.790;2023-04-24T10:40:34;19.93;;;11.60;;
58412;SDS011;44209;52.952;6.790;2023-04-24T10:43:07;17.53;;;10.63;;
58412;SDS011;44209;52.952;6.790;2023-04-24T10:45:36;17.13;;;10.20;;
58412;SDS011;44209;52.952;6.790;2023-04-24T10:48:06;14.77;;;9.57;;
58412;SDS011;44209;52.952;6.790;2023-04-24T10:50:52;19.60;;;10.43;;
58412;SDS011;44209;52.952;6.790;2023-04-24T10:53:19;13.10;;;8.77;;
58412;SDS011;44209;52.952;6.790;2023-04-24T10:55:52;10.97;;;7.37;;
58412;SDS011;44209;52.952;6.790;2023-04-24T11:01:03;11.67;;;6.37;;
58412;SDS011;44209;52.952;6.790;2023-04-24T11:03:30;17.30;;;6.43;;
58412;SDS011;44209;52.952;6.790;2023-04-24T11:08:25;10.00;;;5.87;;
58412;SDS011;44209;52.952;6.790;2023-04-24T11:10:58;13.20;;;5.47;;
58412;SDS011;44209;52.952;6.790;2023-04-24T11:13:26;9.60;;;4.83;;
58412;SDS011;44209;52.952;6.790;2023-04-24T11:16:14;8.40;;;4.53;;
58412;SDS011;44209;52.952;6.790;2023-04-24T11:18:50;12.07;;;4.33;;
58412;SDS011;44209;52.952;6.790;2023-04-24T11:23:45;8.17;;;4.00;;
58412;SDS011;44209;52.952;6.790;2023-04-24T11:26:19;7.40;;;4.13;;
58412;SDS011;44209;52.952;6.790;2023-04-24T11:28:49;10.50;;;4.33;;
58412;SDS011;44209;52.952;6.790;2023-04-24T11:34:11;5.87;;;3.40;;
58412;SDS011;44209;52.952;6.790;2023-04-24T11:36:39;5.17;;;3.53;;
58412;SDS011;44209;52.952;6.790;2023-04-24T11:39:07;5.67;;;3.10;;
58412;SDS011;44209;52.952;6.790;2023-04-24T11:41:34;8.60;;;3.53;;
58412;SDS011;44209;52.952;6.790;2023-04-24T11:44:00;11.23;;;3.53;;
58412;SDS011;44209;52.952;6.790;2023-04-24T11:46:28;7.93;;;3.43;;
58412;SDS011;44209;52.952;6.790;2023-04-24T11:49:12;8.37;;;3.87;;
58412;SDS011;44209;52.952;6.790;2023-04-24T11:51:38;11.77;;;3.80;;
58412;SDS011;44209;52.952;6.790;2023-04-24T11:54:07;8.57;;;3.17;;
58412;SDS011;44209;52.952;6.790;2023-04-24T11:56:33;9.50;;;3.60;;
58412;SDS011;44209;52.952;6.790;2023-04-24T11:58:58;10.33;;;3.47;;
58412;SDS011;44209;52.952;6.790;2023-04-24T12:01:24;11.10;;;3.70;;
58412;SDS011;44209;52.952;6.790;2023-04-24T12:03:50;8.53;;;3.50;;
58412;SDS011;44209;52.952;6.790;2023-04-24T12:06:24;9.57;;;3.63;;
58412;SDS011;44209;52.952;6.790;2023-04-24T12:08:52;7.00;;;2.97;;
58412;SDS011;44209;52.952;6.790;2023-04-24T12:11:20;6.97;;;2.90;;
58412;SDS011;44209;52.952;6.790;2023-04-24T12:13:45;10.77;;;3.27;;
58412;SDS011;44209;52.952;6.790;2023-04-24T12:16:11;6.97;;;2.70;;
58412;SDS011;44209;52.952;6.790;2023-04-24T12:18:41;8.57;;;2.93;;
58412;SDS011;44209;52.952;6.790;2023-04-24T12:21:18;4.77;;;2.20;;
58412;SDS011;44209;52.952;6.790;2023-04-24T12:23:45;7.60;;;2.40;;
58412;SDS011;44209;52.952;6.790;2023-04-24T12:26:18;9.53;;;2.77;;
58412;SDS011;44209;52.952;6.790;2023-04-24T12:28:46;5.63;;;2.40;;
58412;SDS011;44209;52.952;6.790;2023-04-24T12:31:14;6.27;;;2.30;;
58412;SDS011;44209;52.952;6.790;2023-04-24T12:33:40;3.37;;;2.10;;
58412;SDS011;44209;52.952;6.790;2023-04-24T12:36:07;4.53;;;2.30;;
58412;SDS011;44209;52.952;6.790;2023-04-24T12:38:35;4.00;;;2.20;;
58412;SDS011;44209;52.952;6.790;2023-04-24T12:41:06;6.10;;;2.50;;
58412;SDS011;44209;52.952;6.790;2023-04-24T12:43:33;5.53;;;2.23;;
58412;SDS011;44209;52.952;6.790;2023-04-24T12:45:59;3.80;;;2.00;;
58412;SDS011;44209;52.952;6.790;2023-04-24T12:48:25;5.67;;;2.70;;
58412;SDS011;44209;52.952;6.790;2023-04-24T12:50:52;7.60;;;2.73;;
58412;SDS011;44209;52.952;6.790;2023-04-24T12:53:18;7.57;;;2.70;;
58412;SDS011;44209;52.952;6.790;2023-04-24T12:55:43;11.53;;;2.80;;
58412;SDS011;44209;52.952;6.790;2023-04-24T12:58:10;3.90;;;2.03;;
58412;SDS011;44209;52.952;6.790;2023-04-24T13:00:36;5.10;;;2.23;;
58412;SDS011;44209;52.952;6.790;2023-04-24T13:03:02;4.43;;;2.13;;
58412;SDS011;44209;52.952;6.790;2023-04-24T13:05:28;4.17;;;1.83;;
58412;SDS011;44209;52.952;6.790;2023-04-24T13:07:54;4.73;;;1.83;;
58412;SDS011;44209;52.952;6.790;2023-04-24T13:10:19;5.83;;;1.90;;
58412;SDS011;44209;52.952;6.790;2023-04-24T13:12:45;5.50;;;1.87;;
58412;SDS011;44209;52.952;6.790;2023-04-24T13:15:11;5.23;;;1.87;;
58412;SDS011;44209;52.952;6.790;2023-04-24T13:17:37;3.40;;;2.10;;
58412;SDS011;44209;52.952;6.790;2023-04-24T13:20:04;7.97;;;1.90;;
58412;SDS011;44209;52.952;6.790;2023-04-24T13:22:30;4.03;;;1.80;;
58412;SDS011;44209;52.952;6.790;2023-04-24T13:24:56;4.03;;;1.80;;
58412;SDS011;44209;52.952;6.790;2023-04-24T13:27:22;3.87;;;1.90;;
58412;SDS011;44209;52.952;6.790;2023-04-24T13:29:47;5.33;;;1.90;;
58412;SDS011;44209;52.952;6.790;2023-04-24T13:32:13;6.30;;;1.90;;
58412;SDS011;44209;52.952;6.790;2023-04-24T13:34:39;5.43;;;1.43;;
58412;SDS011;44209;52.952;6.790;2023-04-24T13:37:05;3.97;;;1.40;;
58412;SDS011;44209;52.952;6.790;2023-04-24T13:39:32;4.13;;;1.60;;
58412;SDS011;44209;52.952;6.790;2023-04-24T13:41:58;4.80;;;1.53;;
58412;SDS011;44209;52.952;6.790;2023-04-24T13:44:24;5.37;;;1.70;;
58412;SDS011;44209;52.952;6.790;2023-04-24T13:46:51;3.60;;;1.30;;
58412;SDS011;44209;52.952;6.790;2023-04-24T13:49:19;6.23;;;1.70;;
58412;SDS011;44209;52.952;6.790;2023-04-24T13:51:45;2.83;;;1.47;;
58412;SDS011;44209;52.952;6.790;2023-04-24T13:54:11;3.40;;;1.40;;
58412;SDS011;44209;52.952;6.790;2023-04-24T13:56:37;5.90;;;1.70;;
58412;SDS011;44209;52.952;6.790;2023-04-24T13:59:03;2.67;;;1.37;;
58412;SDS011;44209;52.952;6.790;2023-04-24T14:01:29;5.20;;;1.37;;
58412;SDS011;44209;52.952;6.790;2023-04-24T14:03:55;3.87;;;1.03;;
58412;SDS011;44209;52.952;6.790;2023-04-24T14:06:22;3.53;;;1.10;;
58412;SDS011;44209;52.952;6.790;2023-04-24T14:08:48;2.47;;;1.10;;
58412;SDS011;44209;52.952;6.790;2023-04-24T14:11:14;1.93;;;1.20;;
58412;SDS011;44209;52.952;6.790;2023-04-24T14:13:43;4.20;;;1.50;;
58412;SDS011;44209;52.952;6.790;2023-04-24T14:16:09;2.03;;;1.03;;
58412;SDS011;44209;52.952;6.790;2023-04-24T14:18:35;3.57;;;1.43;;
58412;SDS011;44209;52.952;6.790;2023-04-24T14:21:02;5.23;;;1.60;;
58412;SDS011;44209;52.952;6.790;2023-04-24T14:23:28;3.13;;;1.40;;
58412;SDS011;44209;52.952;6.790;2023-04-24T14:25:54;6.67;;;1.40;;
58412;SDS011;44209;52.952;6.790;2023-04-24T14:28:20;3.80;;;1.33;;
58412;SDS011;44209;52.952;6.790;2023-04-24T14:30:46;4.97;;;1.23;;
58412;SDS011;44209;52.952;6.790;2023-04-24T14:33:12;4.47;;;1.17;;
58412;SDS011;44209;52.952;6.790;2023-04-24T14:35:39;4.97;;;1.43;;
58412;SDS011;44209;52.952;6.790;2023-04-24T14:38:07;4.43;;;1.60;;
58412;SDS011;44209;52.952;6.790;2023-04-24T14:40:32;5.63;;;1.50;;
58412;SDS011;44209;52.952;6.790;2023-04-24T14:42:58;8.60;;;1.73;;
58412;SDS011;44209;52.952;6.790;2023-04-24T14:45:24;6.83;;;2.43;;
58412;SDS011;44209;52.952;6.790;2023-04-24T14:47:53;8.87;;;2.70;;
58412;SDS011;44209;52.952;6.790;2023-04-24T14:50:20;7.53;;;2.37;;
58412;SDS011;44209;52.952;6.790;2023-04-24T14:52:45;6.90;;;2.00;;
58412;SDS011;44209;52.952;6.790;2023-04-24T14:55:11;8.80;;;1.97;;
58412;SDS011;44209;52.952;6.790;2023-04-24T14:57:37;7.80;;;2.23;;
58412;SDS011;44209;52.952;6.790;2023-04-24T15:00:04;7.23;;;2.30;;
58412;SDS011;44209;52.952;6.790;2023-04-24T15:02:34;8.50;;;2.53;;